Time;durP1;ratioP1;P1;durP2;ratioP2;P2;SDS_P1;SDS_P2;PMS_P1;PMS_P2;Temp;Humidity;BMP_temperature;BMP_pressure;BME280_temperature;BME280_humidity;BME280_pressure;Samples;Min_cycle;Max_cycle;Signal;HPM_P1;HPM_P2
2022/11/13 00:00:29;;;;;;;23.50;15.47;;;;;;;11.65;57.99;102905.47;5017493;28;20396;-79
2022/11/13 00:02:54;;;;;;;22.02;15.68;;;;;;;11.63;57.75;102904.75;5017542;28;20431;-78
2022/11/13 00:05:20;;;;;;;23.77;15.73;;;;;;;11.61;58.03;102909.34;5016890;28;20415;-78
2022/11/13 00:07:45;;;;;;;23.70;16.05;;;;;;;11.55;58.16;102901.00;5014775;28;20418;-78
2022/11/13 00:10:11;;;;;;;21.47;15.97;;;;;;;11.53;58.04;102894.97;5017011;28;20396;-79
2022/11/13 00:12:36;;;;;;;23.02;16.17;;;;;;;11.55;58.08;102901.84;5017965;28;20474;-78
2022/11/13 00:15:02;;;;;;;22.47;15.80;;;;;;;11.60;58.24;102902.31;5017089;28;20609;-78
2022/11/13 00:17:27;;;;;;;22.65;15.80;;;;;;;11.64;58.12;102902.91;5013199;28;20380;-78
2022/11/13 00:19:53;;;;;;;20.20;15.20;;;;;;;11.68;57.93;102901.69;5014233;28;20942;-78
2022/11/13 00:22:19;;;;;;;21.83;15.75;;;;;;;11.75;57.47;102910.03;5013524;28;20416;-78
2022/11/13 00:24:45;;;;;;;21.90;14.93;;;;;;;11.88;57.14;102907.22;5013755;28;20399;-79
2022/11/13 00:27:10;;;;;;;22.07;15.30;;;;;;;11.90;56.91;102895.50;5016775;28;20473;-78
2022/11/13 00:29:36;;;;;;;19.37;15.10;;;;;;;11.91;56.68;102899.88;5014973;28;20944;-78
2022/11/13 00:32:01;;;;;;;20.77;14.53;;;;;;;11.83;56.83;102899.63;5014469;28;20508;-78
2022/11/13 00:34:27;;;;;;;21.50;15.40;;;;;;;11.95;56.33;102901.31;5014464;28;20380;-78
2022/11/13 00:36:52;;;;;;;19.50;15.07;;;;;;;12.03;56.08;102900.69;5014606;28;20380;-78
2022/11/13 00:39:18;;;;;;;20.42;15.45;;;;;;;12.06;55.83;102903.06;5014125;28;20375;-78
2022/11/13 00:41:43;;;;;;;21.80;15.67;;;;;;;12.06;55.73;102892.44;5014189;28;20388;-78
2022/11/13 00:44:09;;;;;;;26.00;16.35;;;;;;;11.93;55.95;102897.09;5017486;28;20387;-79
2022/11/13 00:46:35;;;;;;;20.90;16.10;;;;;;;11.89;56.09;102891.16;5015586;28;20509;-79
2022/11/13 00:49:00;;;;;;;23.23;16.07;;;;;;;11.91;56.03;102894.56;5016103;28;20971;-79
2022/11/13 00:51:26;;;;;;;24.05;17.25;;;;;;;11.84;56.30;102894.16;5015273;28;20392;-78
2022/11/13 00:53:51;;;;;;;23.73;17.20;;;;;;;11.81;56.54;102885.59;5012865;28;20870;-79
2022/11/13 00:56:17;;;;;;;23.33;16.67;;;;;;;11.76;56.55;102893.97;5007464;28;20384;-79
2022/11/13 00:58:42;;;;;;;22.53;17.23;;;;;;;11.78;56.25;102891.19;5016672;28;20779;-79
2022/11/13 01:01:12;;;;;;;25.40;17.07;;;;;;;11.76;56.29;102896.63;5016938;28;20427;-79
2022/11/13 01:03:38;;;;;;;25.85;17.52;;;;;;;11.60;56.53;102886.38;5017416;28;20418;-78
2022/11/13 01:06:32;;;;;;;24.85;18.42;;;;;;;11.64;56.48;102887.81;5018182;28;20408;-78
2022/11/13 01:08:58;;;;;;;26.00;18.52;;;;;;;11.55;56.75;102890.38;5016661;28;20380;-79
2022/11/13 01:11:28;;;;;;;23.98;17.60;;;;;;;11.27;57.06;102892.56;5016773;28;20391;-79
2022/11/13 01:13:53;;;;;;;23.02;16.45;;;;;;;10.98;58.36;102890.38;5016552;28;20384;-78
2022/11/13 01:16:22;;;;;;;22.97;17.33;;;;;;;10.94;58.45;102882.78;5016503;28;20372;-79
2022/11/13 01:18:48;;;;;;;21.67;16.58;;;;;;;10.91;58.43;102878.53;5014653;28;20801;-77
2022/11/13 01:21:17;;;;;;;22.48;16.70;;;;;;;10.96;58.23;102873.72;5015000;28;20376;-78
2022/11/13 01:23:43;;;;;;;23.85;16.33;;;;;;;10.85;58.26;102873.72;5014403;28;20384;-78
2022/11/13 01:26:16;;;;;;;21.65;16.08;;;;;;;10.77;58.03;102874.31;5015750;28;20404;-78
2022/11/13 01:28:43;;;;;;;18.50;14.10;;;;;;;10.65;58.91;102875.25;5018306;28;20483;-78
2022/11/13 01:31:12;;;;;;;18.23;14.67;;;;;;;10.52;58.68;102883.31;5005794;28;20741;-79
2022/11/13 01:33:37;;;;;;;22.10;15.23;;;;;;;10.45;59.34;102879.41;5016152;28;20384;-78
2022/11/13 01:36:06;;;;;;;20.57;14.50;;;;;;;10.39;59.32;102875.44;5013088;28;20382;-78
2022/11/13 01:38:32;;;;;;;18.60;13.38;;;;;;;10.25;59.60;102875.59;5018963;28;20394;-78
2022/11/13 01:40:58;;;;;;;19.75;15.02;;;;;;;10.19;59.77;102868.06;5014490;28;20380;-79
2022/11/13 01:43:50;;;;;;;24.25;14.73;;;;;;;10.16;60.36;102866.50;5011529;28;20876;-79
2022/11/13 01:46:28;;;;;;;19.50;14.18;;;;;;;10.22;60.12;102868.69;5018633;28;20441;-77
2022/11/13 01:49:03;;;;;;;20.55;14.65;;;;;;;10.25;59.56;102870.28;5016308;28;20490;-79
2022/11/13 01:51:40;;;;;;;18.67;14.45;;;;;;;10.30;59.36;102876.94;5013294;28;20407;-79
2022/11/13 01:54:30;;;;;;;19.60;14.68;;;;;;;10.55;58.92;102868.94;5007743;28;20393;-78
2022/11/13 01:56:57;;;;;;;18.60;13.85;;;;;;;10.54;58.76;102864.63;5013563;28;20388;-78
2022/11/13 01:59:26;;;;;;;21.15;14.65;;;;;;;10.44;59.31;102877.72;5006553;28;20860;-79
2022/11/13 02:01:53;;;;;;;19.50;15.30;;;;;;;10.51;59.05;102871.84;5003943;28;20420;-80
2022/11/13 02:04:19;;;;;;;19.08;14.43;;;;;;;10.61;58.75;102879.94;5013752;28;20835;-79
2022/11/13 02:06:53;;;;;;;19.80;14.97;;;;;;;10.65;58.65;102884.03;5015182;28;20489;-79
2022/11/13 02:09:23;;;;;;;18.97;14.53;;;;;;;10.80;58.68;102882.03;5012693;28;20439;-79
2022/11/13 02:11:49;;;;;;;19.98;13.98;;;;;;;10.84;58.25;102886.16;5008183;28;20475;-79
2022/11/13 02:14:16;;;;;;;19.65;15.15;;;;;;;10.87;58.22;102879.75;5005583;28;20447;-79
2022/11/13 02:16:45;;;;;;;18.92;14.70;;;;;;;10.86;58.34;102880.72;5006159;28;20415;-79
2022/11/13 02:19:38;;;;;;;18.83;14.68;;;;;;;10.72;58.68;102873.81;5013201;28;20399;-79
2022/11/13 02:22:16;;;;;;;18.83;14.85;;;;;;;10.74;59.18;102873.72;5007264;28;20448;-80
2022/11/13 02:24:44;;;;;;;20.30;14.65;;;;;;;10.82;58.43;102869.50;5004174;28;20808;-78
2022/11/13 02:27:25;;;;;;;18.77;14.18;;;;;;;10.74;58.61;102871.06;5011059;28;20412;-79
2022/11/13 02:29:50;;;;;;;19.07;14.30;;;;;;;10.92;58.43;102869.63;5008859;28;20443;-80
2022/11/13 02:32:15;;;;;;;19.40;14.40;;;;;;;11.10;57.84;102880.63;5012733;28;20384;-79
2022/11/13 02:34:41;;;;;;;17.70;13.63;;;;;;;11.16;57.49;102866.84;5012423;28;20467;-78
2022/11/13 02:37:06;;;;;;;18.93;14.33;;;;;;;11.20;57.59;102863.00;5008804;28;20391;-78
2022/11/13 02:39:32;;;;;;;17.92;14.63;;;;;;;11.21;57.59;102874.47;5026913;28;20480;-79
2022/11/13 02:41:58;;;;;;;26.17;17.07;;;;;;;11.22;57.51;102873.50;5005849;28;20870;-80
2022/11/13 02:44:23;;;;;;;24.70;17.47;;;;;;;11.17;57.63;102867.72;5006639;28;20402;-79
2022/11/13 02:46:49;;;;;;;20.87;15.53;;;;;;;11.02;57.85;102875.91;5009143;28;20404;-78
2022/11/13 02:49:14;;;;;;;20.87;15.30;;;;;;;11.02;58.05;102873.25;5009124;28;20394;-78
2022/11/13 02:51:40;;;;;;;21.73;14.27;;;;;;;10.89;58.22;102853.94;5013260;28;20479;-78
2022/11/13 02:54:05;;;;;;;20.35;14.13;;;;;;;10.66;58.64;102864.53;5009906;28;20426;-79
2022/11/13 02:56:31;;;;;;;19.40;13.70;;;;;;;10.75;58.32;102862.97;5009412;28;20481;-79
2022/11/13 02:58:56;;;;;;;17.77;13.90;;;;;;;10.87;57.85;102864.66;5006913;28;20376;-79
2022/11/13 03:01:22;;;;;;;19.23;14.07;;;;;;;10.77;57.87;102852.22;5012675;28;20380;-79
2022/11/13 03:03:47;;;;;;;18.80;13.93;;;;;;;10.63;58.19;102856.78;5017098;28;20424;-79
2022/11/13 03:06:13;;;;;;;18.38;13.90;;;;;;;10.56;58.19;102865.34;5014742;28;20480;-79
2022/11/13 03:08:38;;;;;;;18.13;14.13;;;;;;;10.55;58.52;102855.69;5007406;28;20832;-78
2022/11/13 03:11:08;;;;;;;19.55;14.15;;;;;;;10.63;58.12;102854.16;5010205;28;20389;-80
2022/11/13 03:13:34;;;;;;;20.48;14.32;;;;;;;10.58;58.03;102860.78;5014484;28;20390;-80
2022/11/13 03:16:12;;;;;;;18.70;13.75;;;;;;;10.72;57.74;102863.22;5013866;28;20406;-80
2022/11/13 03:18:38;;;;;;;19.98;13.88;;;;;;;10.81;57.83;102867.81;5019515;28;20383;-79
2022/11/13 03:21:14;;;;;;;30.42;27.52;;;;;;;10.92;57.39;102874.09;5014901;28;20461;-79
2022/11/13 03:23:43;;;;;;;16.10;13.73;;;;;;;11.04;57.31;102876.63;5019293;28;20396;-80
2022/11/13 03:26:12;;;;;;;18.70;14.57;;;;;;;11.09;56.94;102863.84;5010708;28;20419;-80
2022/11/13 03:28:38;;;;;;;20.55;17.42;;;;;;;11.13;56.61;102876.88;5017821;28;20384;-81
2022/11/13 03:31:04;;;;;;;20.40;15.70;;;;;;;11.17;56.85;102865.91;5019498;28;20426;-80
2022/11/13 03:33:30;;;;;;;18.73;14.17;;;;;;;11.20;56.69;102865.66;5020473;28;20410;-81
2022/11/13 03:35:56;;;;;;;20.13;14.33;;;;;;;11.19;56.73;102863.13;5011623;28;20395;-81
2022/11/13 03:38:21;;;;;;;17.90;14.07;;;;;;;11.11;56.94;102869.03;5009672;28;20383;-80
2022/11/13 03:40:47;;;;;;;20.20;17.07;;;;;;;11.16;56.83;102872.16;5021074;28;20466;-81
2022/11/13 03:43:14;;;;;;;27.50;24.57;;;;;;;11.23;56.99;102880.50;5013148;28;20392;-80
2022/11/13 03:45:40;;;;;;;19.67;15.45;;;;;;;11.25;56.97;102882.06;5005110;28;20401;-80
2022/11/13 03:48:05;;;;;;;19.00;14.18;;;;;;;11.21;56.85;102880.59;5017944;28;20396;-80
2022/11/13 03:50:31;;;;;;;19.25;14.65;;;;;;;11.31;56.81;102875.44;5016251;28;20392;-80
2022/11/13 03:52:56;;;;;;;19.60;14.87;;;;;;;11.33;56.82;102884.13;5015964;28;20487;-80
2022/11/13 03:55:22;;;;;;;18.53;14.33;;;;;;;11.28;56.76;102875.66;5011017;28;20744;-79
2022/11/13 03:57:47;;;;;;;20.77;14.70;;;;;;;11.34;56.94;102880.47;5010627;28;20396;-78
2022/11/13 04:00:14;;;;;;;18.17;14.10;;;;;;;11.32;57.21;102877.09;5018712;28;20391;-77
2022/11/13 04:02:39;;;;;;;21.67;13.87;;;;;;;11.36;57.03;102875.91;5014102;28;20421;-79
2022/11/13 04:05:07;;;;;;;18.20;13.70;;;;;;;11.45;57.01;102875.19;5016588;28;20487;-79
2022/11/13 04:07:33;;;;;;;17.40;13.50;;;;;;;11.43;57.02;102874.47;5011889;28;20807;-78
2022/11/13 04:09:58;;;;;;;17.95;13.63;;;;;;;11.43;57.06;102865.63;5009644;28;20891;-79
2022/11/13 04:12:24;;;;;;;19.50;13.97;;;;;;;11.41;57.25;102865.75;5005808;28;20713;-78
2022/11/13 04:14:49;;;;;;;17.03;13.43;;;;;;;11.34;57.69;102867.19;5016637;28;20403;-78
2022/11/13 04:17:14;;;;;;;18.40;13.57;;;;;;;11.35;57.50;102865.41;5009796;28;20392;-78
2022/11/13 04:19:40;;;;;;;17.37;13.77;;;;;;;11.32;57.81;102866.47;5006685;28;20435;-78
2022/11/13 04:22:05;;;;;;;22.08;15.15;;;;;;;11.35;57.39;102865.41;5015003;28;20398;-76
2022/11/13 04:24:31;;;;;;;20.93;14.63;;;;;;;11.30;57.67;102857.81;5034743;28;20396;-79
2022/11/13 04:26:56;;;;;;;22.03;14.93;;;;;;;11.29;57.95;102867.59;5008527;28;20408;-80
2022/11/13 04:29:22;;;;;;;18.48;14.43;;;;;;;11.29;57.94;102864.09;5019202;28;20407;-79
2022/11/13 04:31:47;;;;;;;21.33;15.40;;;;;;;11.37;57.71;102871.44;5018819;28;20745;-79
2022/11/13 04:34:13;;;;;;;20.98;14.60;;;;;;;11.38;57.62;102867.81;5021482;28;20404;-78
2022/11/13 04:36:39;;;;;;;20.30;14.47;;;;;;;11.36;57.77;102869.75;5017702;28;20384;-78
2022/11/13 04:39:04;;;;;;;22.43;15.67;;;;;;;11.42;57.61;102867.44;5018120;28;20877;-78
2022/11/13 04:44:14;;;;;;;19.75;15.25;;;;;;;11.41;57.58;102865.75;5016472;28;20510;-79
2022/11/13 04:46:39;;;;;;;19.92;15.18;;;;;;;11.41;57.55;102868.41;5013323;28;20936;-78
2022/11/13 04:49:05;;;;;;;25.13;15.80;;;;;;;11.39;57.33;102862.38;5017462;28;20435;-79
2022/11/13 04:51:30;;;;;;;21.77;15.73;;;;;;;11.41;57.60;102868.41;5017597;28;20500;-78
2022/11/13 04:53:56;;;;;;;19.25;15.50;;;;;;;11.41;57.39;102868.41;5015985;28;20725;-77
2022/11/13 04:56:21;;;;;;;21.03;15.10;;;;;;;11.37;57.58;102866.97;5012329;28;20398;-78
2022/11/13 04:58:47;;;;;;;20.15;15.23;;;;;;;11.41;57.27;102867.56;5017695;28;20407;-78
2022/11/13 05:01:13;;;;;;;21.02;16.27;;;;;;;11.48;57.21;102871.44;5009871;28;20454;-78
2022/11/13 05:03:38;;;;;;;22.27;15.70;;;;;;;11.47;57.43;102872.41;5017673;28;20398;-78
2022/11/13 05:06:06;;;;;;;22.07;15.40;;;;;;;11.51;57.04;102873.84;5013527;28;20768;-77
2022/11/13 05:08:32;;;;;;;21.20;16.42;;;;;;;11.56;56.54;102871.66;5016235;28;20388;-78
2022/11/13 05:10:58;;;;;;;20.95;15.88;;;;;;;11.62;56.71;102875.63;5015411;28;20396;-78
2022/11/13 05:13:24;;;;;;;22.90;16.07;;;;;;;11.59;56.64;102873.22;5017364;28;20753;-78
2022/11/13 05:15:49;;;;;;;22.37;15.57;;;;;;;11.60;56.29;102875.75;5016684;28;20871;-78
2022/11/13 05:18:15;;;;;;;21.17;16.23;;;;;;;11.55;56.50;102877.94;5013430;28;21207;-77
2022/11/13 05:20:40;;;;;;;23.50;16.20;;;;;;;11.48;56.77;102879.38;5010347;28;20488;-78
2022/11/13 05:23:06;;;;;;;22.60;16.43;;;;;;;11.52;56.44;102877.34;5013773;28;20396;-76
2022/11/13 05:25:31;;;;;;;21.20;15.90;;;;;;;11.55;56.43;102883.25;5029596;28;20404;-78
2022/11/13 05:27:57;;;;;;;23.53;16.10;;;;;;;11.62;56.42;102886.25;5016259;28;20865;-78
2022/11/13 05:30:23;;;;;;;22.92;16.45;;;;;;;11.56;56.34;102876.97;5019271;28;20442;-77
2022/11/13 05:32:49;;;;;;;22.10;16.25;;;;;;;11.54;56.52;102878.06;5020135;28;20399;-78
2022/11/13 05:35:15;;;;;;;21.05;16.33;;;;;;;11.46;56.71;102878.66;5034072;28;20388;-78
2022/11/13 05:37:40;;;;;;;22.10;16.23;;;;;;;11.49;56.65;102883.75;5015341;28;20390;-78
2022/11/13 05:40:06;;;;;;;21.90;16.15;;;;;;;11.46;56.57;102876.00;5026325;28;20388;-77
2022/11/13 05:42:32;;;;;;;22.60;15.75;;;;;;;11.36;56.70;102873.25;5026993;28;20403;-79
2022/11/13 05:44:57;;;;;;;22.47;16.00;;;;;;;11.31;57.06;102875.44;5015000;28;20471;-77
2022/11/13 05:47:23;;;;;;;21.20;15.30;;;;;;;11.31;57.17;102883.41;5014029;28;20407;-78
2022/11/13 05:49:48;;;;;;;21.20;15.60;;;;;;;11.32;56.82;102879.75;5013279;28;20471;-80
2022/11/13 05:52:14;;;;;;;21.90;15.47;;;;;;;11.25;57.16;102882.06;5029596;28;20572;-78
2022/11/13 05:54:40;;;;;;;21.98;15.38;;;;;;;11.21;57.12;102882.44;5015699;28;20845;-79
2022/11/13 05:57:05;;;;;;;20.73;15.15;;;;;;;11.22;57.15;102886.78;5018960;28;20874;-79
2022/11/13 05:59:31;;;;;;;19.88;15.40;;;;;;;11.27;56.93;102892.56;5016805;28;20446;-77
2022/11/13 06:01:56;;;;;;;20.97;16.13;;;;;;;11.23;56.99;102883.16;5014780;28;20416;-77
2022/11/13 06:04:22;;;;;;;21.77;16.40;;;;;;;11.16;56.88;102889.91;5014121;28;20396;-78
2022/11/13 06:06:48;;;;;;;21.85;15.93;;;;;;;11.06;57.31;102880.00;5017092;28;20486;-79
2022/11/13 06:09:16;;;;;;;21.67;16.17;;;;;;;11.00;57.11;102887.59;4996186;28;20392;-78
2022/11/13 06:11:42;;;;;;;21.67;15.95;;;;;;;10.90;57.44;102890.97;5016779;28;20386;-78
2022/11/13 06:14:07;;;;;;;23.92;16.98;;;;;;;10.92;57.84;102892.66;5010923;28;20431;-78
2022/11/13 06:16:35;;;;;;;21.33;16.20;;;;;;;11.00;57.55;102893.78;5016913;28;20450;-79
2022/11/13 06:19:03;;;;;;;23.10;17.47;;;;;;;11.03;57.38;102890.03;5010930;28;20399;-79
2022/11/13 06:21:31;;;;;;;24.30;17.67;;;;;;;11.03;57.03;102884.72;5017196;28;20396;-79
2022/11/13 06:23:58;;;;;;;21.92;16.75;;;;;;;11.04;57.22;102892.56;5013738;28;20395;-79
2022/11/13 06:26:35;;;;;;;25.87;18.10;;;;;;;11.01;57.42;102889.31;5015630;28;20438;-79
2022/11/13 06:29:02;;;;;;;25.63;17.42;;;;;;;10.89;57.22;102880.47;5013093;28;20401;-80
2022/11/13 06:31:34;;;;;;;24.02;17.67;;;;;;;10.86;57.46;102892.19;5033514;28;20506;-79
2022/11/13 06:34:01;;;;;;;23.92;18.05;;;;;;;10.88;56.91;102884.09;5015291;28;20561;-79
2022/11/13 06:36:28;;;;;;;24.98;17.58;;;;;;;10.86;56.98;102884.22;5016033;28;20395;-81
2022/11/13 06:38:54;;;;;;;26.73;17.90;;;;;;;10.98;56.57;102886.88;5013415;28;20395;-80
2022/11/13 06:41:22;;;;;;;26.98;18.65;;;;;;;10.98;56.66;102887.72;5014878;28;20776;-78
2022/11/13 06:43:48;;;;;;;27.10;19.10;;;;;;;11.10;56.30;102886.75;5014764;28;20418;-79
2022/11/13 06:46:16;;;;;;;25.65;18.95;;;;;;;11.16;56.17;102888.09;5016359;28;20840;-79
2022/11/13 06:48:44;;;;;;;24.83;19.30;;;;;;;11.17;55.91;102889.78;5014380;28;20448;-79
2022/11/13 06:51:16;;;;;;;28.95;19.42;;;;;;;11.16;55.96;102872.16;4999078;28;20406;-78
2022/11/13 06:53:42;;;;;;;28.63;19.77;;;;;;;11.20;55.89;102870.09;5012970;28;20478;-79
2022/11/13 06:56:08;;;;;;;27.50;20.30;;;;;;;11.18;55.71;102872.91;5016127;28;20466;-78
2022/11/13 06:58:34;;;;;;;28.90;20.48;;;;;;;11.14;55.87;102873.25;5015476;28;20399;-78
2022/11/13 07:01:16;;;;;;;30.27;20.27;;;;;;;11.19;56.06;102871.09;5013987;28;20396;-80
2022/11/13 07:03:43;;;;;;;31.52;21.80;;;;;;;11.20;55.96;102878.06;5012739;28;20408;-78
2022/11/13 07:06:17;;;;;;;29.67;20.92;;;;;;;11.24;55.81;102872.41;5014481;28;20412;-78
2022/11/13 07:08:44;;;;;;;28.80;21.17;;;;;;;11.34;55.54;102879.66;5019072;28;20459;-79
2022/11/13 07:11:13;;;;;;;32.03;21.45;;;;;;;11.33;55.66;102870.00;4973549;28;20422;-78
2022/11/13 07:13:39;;;;;;;28.88;21.27;;;;;;;11.34;55.93;102869.03;5013647;28;20396;-79
2022/11/13 07:16:06;;;;;;;32.10;21.95;;;;;;;11.37;55.75;102866.13;5015517;28;20453;-78
2022/11/13 07:18:32;;;;;;;31.08;21.50;;;;;;;11.44;55.71;102870.81;5012216;28;20402;-78
2022/11/13 07:21:03;;;;;;;32.08;21.80;;;;;;;11.44;55.79;102864.69;5003625;28;20543;-79
2022/11/13 07:23:28;;;;;;;31.00;21.60;;;;;;;11.48;55.75;102866.94;5022378;28;20479;-79
2022/11/13 07:25:56;;;;;;;31.50;21.50;;;;;;;11.53;55.76;102863.09;5019447;28;20459;-79
2022/11/13 07:28:22;;;;;;;31.07;22.63;;;;;;;11.67;55.24;102874.28;5018369;28;21361;-79
2022/11/13 07:30:48;;;;;;;30.67;22.33;;;;;;;11.73;55.24;102872.13;5019411;28;20392;-79
2022/11/13 07:33:13;;;;;;;31.30;21.83;;;;;;;11.82;55.14;102874.84;5015542;28;20388;-80
2022/11/13 07:35:38;;;;;;;28.67;20.07;;;;;;;11.94;54.92;102870.38;4997837;28;20384;-79
2022/11/13 07:38:04;;;;;;;27.03;18.67;;;;;;;12.03;54.66;102879.44;5017200;28;20388;-79
2022/11/13 07:40:29;;;;;;;28.00;19.50;;;;;;;12.06;54.49;102873.84;5018917;28;20492;-78
2022/11/13 07:42:57;;;;;;;27.20;18.73;;;;;;;12.15;54.34;102869.56;5013900;28;20392;-78
2022/11/13 07:45:23;;;;;;;27.83;18.98;;;;;;;12.19;54.32;102865.69;5014495;28;20872;-81
2022/11/13 07:47:49;;;;;;;27.23;18.48;;;;;;;12.24;54.47;102867.03;5016320;28;20513;-79
2022/11/13 07:50:15;;;;;;;24.10;17.75;;;;;;;12.32;54.46;102866.38;5017640;28;20392;-78
2022/11/13 07:52:41;;;;;;;25.63;18.15;;;;;;;12.41;54.26;102859.44;5017811;28;20395;-78
2022/11/13 07:55:06;;;;;;;25.88;18.50;;;;;;;12.51;54.25;102865.66;5017180;28;20533;-79
2022/11/13 07:57:32;;;;;;;27.20;20.17;;;;;;;12.59;54.06;102862.34;5016593;28;20404;-80
2022/11/13 07:59:57;;;;;;;26.13;19.27;;;;;;;12.61;54.05;102852.41;5019321;28;20395;-78
2022/11/13 08:02:23;;;;;;;27.30;18.70;;;;;;;12.65;53.85;102859.16;5010407;28;23167;-79
2022/11/13 08:04:48;;;;;;;25.73;18.13;;;;;;;12.76;53.92;102853.75;5015248;28;20679;-79
2022/11/13 08:07:14;;;;;;;27.13;18.83;;;;;;;12.77;53.66;102852.78;5013186;28;20429;-78
2022/11/13 08:09:39;;;;;;;25.93;19.07;;;;;;;12.73;53.70;102855.84;5013045;28;20493;-78
2022/11/13 08:12:05;;;;;;;24.93;18.43;;;;;;;12.75;53.58;102851.25;5015700;28;20403;-79
2022/11/13 08:14:30;;;;;;;25.17;18.55;;;;;;;12.72;53.62;102849.69;5011768;28;20434;-78
2022/11/13 08:16:56;;;;;;;27.53;19.20;;;;;;;12.74;53.54;102844.22;5007551;28;20967;-79
2022/11/13 08:19:22;;;;;;;25.20;18.30;;;;;;;12.72;53.78;102849.69;5009077;28;20404;-79
2022/11/13 08:21:47;;;;;;;27.70;18.95;;;;;;;12.68;53.61;102842.94;5010587;28;20400;-78
2022/11/13 08:24:13;;;;;;;27.57;19.90;;;;;;;12.78;53.63;102846.50;5013107;28;20876;-78
2022/11/13 08:26:38;;;;;;;23.63;18.48;;;;;;;12.87;53.34;102844.00;5021102;28;20412;-77
2022/11/13 08:29:04;;;;;;;24.77;18.85;;;;;;;12.89;53.20;102840.25;5019124;28;20423;-78
2022/11/13 08:31:30;;;;;;;26.57;18.60;;;;;;;12.95;53.36;102844.19;5032365;28;20512;-78
2022/11/13 08:33:56;;;;;;;27.00;19.57;;;;;;;12.99;53.21;102843.78;5015030;28;20601;-79
2022/11/13 08:36:22;;;;;;;24.93;18.10;;;;;;;12.92;53.24;102833.81;5011425;28;20424;-78
2022/11/13 08:38:47;;;;;;;24.97;18.40;;;;;;;12.98;53.01;102833.25;5010746;28;20690;-79
2022/11/13 08:41:13;;;;;;;22.55;18.35;;;;;;;12.96;53.04;102837.88;5011363;28;20419;-79
2022/11/13 08:43:38;;;;;;;25.40;18.60;;;;;;;13.04;53.16;102830.09;5013403;28;20408;-79
2022/11/13 08:46:04;;;;;;;25.93;18.77;;;;;;;13.17;53.17;102833.34;5007518;28;20419;-79
2022/11/13 08:48:30;;;;;;;28.85;19.08;;;;;;;13.36;52.76;102834.41;5009201;28;20486;-78
2022/11/13 08:50:57;;;;;;;22.52;17.48;;;;;;;13.44;52.53;102836.41;5009419;28;20450;-78
2022/11/13 08:53:23;;;;;;;24.17;18.58;;;;;;;13.28;53.06;102824.41;5009509;28;20884;-79
2022/11/13 08:55:50;;;;;;;25.42;18.10;;;;;;;13.37;53.24;102830.78;5005686;28;21023;-80
2022/11/13 08:58:15;;;;;;;36.40;19.57;;;;;;;13.44;52.88;102831.91;5007430;28;20412;-79
2022/11/13 09:00:41;;;;;;;25.87;18.63;;;;;;;13.48;53.00;102827.97;5010883;28;20400;-78
2022/11/13 09:03:09;;;;;;;27.67;19.25;;;;;;;13.55;52.74;102830.94;5008751;28;20422;-79
2022/11/13 09:05:35;;;;;;;29.50;19.07;;;;;;;13.68;52.97;102828.03;5013899;28;20426;-79
2022/11/13 09:08:02;;;;;;;27.00;21.00;;;;;;;13.82;52.80;102829.44;5007673;28;20452;-78
2022/11/13 09:10:28;;;;;;;28.50;19.90;;;;;;;13.89;52.77;102826.06;5008493;28;20400;-80
2022/11/13 09:13:03;;;;;;;25.42;19.38;;;;;;;13.96;52.86;102829.03;5008135;28;20421;-79
2022/11/13 09:15:30;;;;;;;25.00;18.33;;;;;;;14.00;53.07;102824.25;5031270;28;20997;-79
2022/11/13 09:18:01;;;;;;;28.10;19.92;;;;;;;14.14;53.15;102824.66;5016756;28;20462;-78
2022/11/13 09:20:28;;;;;;;26.13;18.73;;;;;;;14.22;52.98;102825.78;5018399;28;20403;-79
2022/11/13 09:22:58;;;;;;;29.55;20.13;;;;;;;14.31;53.00;102819.59;5019404;28;20396;-77
2022/11/13 09:25:36;;;;;;;23.23;15.35;;;;;;;14.68;54.47;102809.00;5018103;28;20402;-88
2022/11/13 09:28:03;;;;;;;25.45;16.50;;;;;;;15.44;53.49;102825.78;5049786;28;20420;-89
2022/11/13 09:30:29;;;;;;;27.05;19.33;;;;;;;15.70;52.35;102811.69;5030556;28;20416;-79
2022/11/13 09:32:57;;;;;;;24.35;18.27;;;;;;;15.48;51.22;102809.31;5017766;28;20394;-78
2022/11/13 09:35:33;;;;;;;25.80;19.63;;;;;;;15.33;51.25;102813.47;5018003;28;20804;-78
2022/11/13 09:38:05;;;;;;;24.67;19.55;;;;;;;15.21;50.76;102794.13;5015808;28;20412;-79
2022/11/13 09:40:40;;;;;;;24.52;19.88;;;;;;;15.09;51.05;102787.34;5003562;28;20737;-79
2022/11/13 09:43:21;;;;;;;27.00;20.65;;;;;;;15.17;51.15;102784.75;5018869;28;20390;-80
2022/11/13 09:45:47;;;;;;;25.58;19.80;;;;;;;15.35;51.19;102789.28;5026118;28;20375;-79
2022/11/13 09:48:15;;;;;;;25.25;19.30;;;;;;;15.33;50.79;102777.91;5026824;28;20451;-81
2022/11/13 09:50:41;;;;;;;26.70;19.95;;;;;;;15.31;50.66;102772.72;5019370;28;20380;-79
2022/11/13 09:53:11;;;;;;;25.58;19.88;;;;;;;15.32;50.44;102776.22;5015909;28;20478;-79
2022/11/13 09:55:44;;;;;;;24.50;17.88;;;;;;;15.30;50.50;102781.69;5016486;28;20431;-79
2022/11/13 09:58:10;;;;;;;23.67;18.25;;;;;;;15.22;50.58;102766.44;5015748;28;20376;-78
2022/11/13 10:00:35;;;;;;;22.43;17.80;;;;;;;15.35;50.20;102774.09;5019592;28;20673;-79
2022/11/13 10:03:36;;;;;;;27.23;19.33;;;;;;;15.35;50.31;102762.56;5017203;28;20419;-79
2022/11/13 10:06:20;;;;;;;23.50;17.23;;;;;;;15.32;50.67;102762.84;5019057;28;20488;-79
2022/11/13 10:09:06;;;;;;;26.60;18.63;;;;;;;15.45;50.66;102766.00;5016996;28;20384;-78
2022/11/13 10:11:48;;;;;;;26.30;18.45;;;;;;;15.44;50.33;102767.00;5020663;28;20390;-79
2022/11/13 10:14:28;;;;;;;24.85;17.75;;;;;;;15.41;50.53;102761.94;5025869;28;20911;-80
2022/11/13 10:17:00;;;;;;;21.42;17.00;;;;;;;15.42;50.03;102755.63;5018500;28;20463;-79
2022/11/13 10:19:33;;;;;;;24.13;17.47;;;;;;;15.20;50.26;102754.22;5035900;28;20380;-79
2022/11/13 10:22:04;;;;;;;20.52;16.10;;;;;;;15.23;50.25;102752.09;5019236;28;20864;-78
2022/11/13 10:24:42;;;;;;;21.27;16.52;;;;;;;15.32;50.16;102749.50;5030742;28;20382;-79
2022/11/13 10:27:10;;;;;;;22.73;17.80;;;;;;;15.35;50.10;102751.88;5018885;28;20403;-79
2022/11/13 10:29:36;;;;;;;23.63;17.35;;;;;;;15.29;50.03;102750.66;5017827;28;20384;-79
2022/11/13 10:32:25;;;;;;;20.77;15.87;;;;;;;15.20;50.37;102740.88;5017594;28;20388;-78
2022/11/13 10:34:58;;;;;;;21.20;16.50;;;;;;;15.22;50.37;102746.91;5011932;28;20383;-79
2022/11/13 10:37:51;;;;;;;21.13;17.23;;;;;;;15.37;50.30;102739.19;5037691;28;20423;-79
2022/11/13 10:40:28;;;;;;;24.35;16.48;;;;;;;15.52;49.88;102734.16;5025425;28;20463;-79
2022/11/13 10:43:04;;;;;;;21.80;15.60;;;;;;;15.49;49.91;102724.63;5017578;28;20388;-79
2022/11/13 10:45:30;;;;;;;21.88;16.50;;;;;;;15.54;50.03;102732.16;5016692;28;20424;-79
2022/11/13 10:47:55;;;;;;;20.20;15.70;;;;;;;15.56;49.83;102730.19;5031490;28;20490;-79
2022/11/13 10:50:28;;;;;;;22.73;16.70;;;;;;;15.54;49.68;102722.31;5018272;28;20428;-81
2022/11/13 10:52:56;;;;;;;18.67;15.45;;;;;;;15.62;49.42;102711.69;5020255;28;20376;-80
2022/11/13 10:55:35;;;;;;;18.63;15.27;;;;;;;15.64;49.36;102699.00;5031563;28;20383;-78
2022/11/13 10:58:03;;;;;;;19.70;16.02;;;;;;;15.60;49.34;102699.47;5020352;28;20387;-79
2022/11/13 11:00:35;;;;;;;21.02;15.38;;;;;;;15.72;49.17;102695.56;5027478;28;20901;-78
2022/11/13 11:03:01;;;;;;;20.85;15.77;;;;;;;15.80;48.95;102686.78;5036606;28;20406;-78
2022/11/13 11:05:27;;;;;;;19.90;15.43;;;;;;;15.94;48.68;102696.94;5019178;28;20388;-76
2022/11/13 11:07:54;;;;;;;20.67;15.88;;;;;;;15.86;48.87;102684.34;5024170;28;20479;-77
2022/11/13 11:10:20;;;;;;;20.80;16.00;;;;;;;15.91;48.78;102680.34;5020052;28;20494;-78
2022/11/13 11:12:58;;;;;;;18.77;14.90;;;;;;;15.95;48.70;102687.06;5034444;28;20384;-79
2022/11/13 11:15:46;;;;;;;20.10;14.88;;;;;;;15.93;48.60;102681.84;5004653;28;20379;-79